Airfield :
LOGIN :

Register | Disclaimer

   EN    FR    IT 

 










Legend :    VFR   Marginal VFR   IFR   Intensive IFR   Very Intensive IFR
Visi :
Ceiling :
>= 8 km
>= 3000ft
5 to 8 km
1000 to 3000 ft
1500m to 5 km
500 to 1000 ft
800 to 1500m
200 to 500 ft
< 800m
< 200 ft
Symbols :   Thunderstorms  Fog  Heavy snow  Heavy precipitations  Wind > 20 kt
SIGMETs :     Misc.  Thunderstorms  Icing  Turbulence  Mountain Waves  Volcanic Ashes







- Airport Elevation : 120 ft
- IATA code : MME
- Download approach charts


EGNV - Durham Tees valley

CURRENT METAR :
  • 241320Z 17012KT 9999 FEW035 18/12 Q1019

EXPIRED METARs :
  • 241250Z 17012KT 9999 FEW032 18/12 Q1019
  • 241220Z 17011KT 9999 FEW025 19/12 Q1019
  • 241150Z 17011KT 9000 FEW025 18/12 Q1019
  • 241120Z 18011KT 8000 FEW025 18/12 Q1019
  • 241050Z 17008KT 8000 FEW015 16/12 Q1019

TAF AMD TAF EGNV
Valid from the 24 at 12:00 until the 24 at 21:00 UTC


241212Z 2412/2421 19012KT 9000 FEW035
BECMG 2412/2415 9999
ATIS : +44 9012 018 111
No reported NOTAMs for that airfield.



MET'MAP, your aeronautical weather chart ! - Copyright ORBIFLY December 2007 - Disclaimer

ORBIFLY MET'MAP TEAM :

Programming & Development : Alexandra Zaïnal
Concept & Development : Baudouin d'Aumeries
Co-Development & Prog : Marc-Olivier Méhu
Technical & hardware support : Manuel Goepfert

Contact : metmap@orbifly.com




SOURCES & CREDITS :

   NOAA